createdAt,value
2023-04-07T00:02:16.737Z,97923.44
2023-04-07T00:04:44.005Z,97915.00
2023-04-07T00:07:11.229Z,97915.25
2023-04-07T00:09:38.750Z,97908.84
2023-04-07T00:12:06.951Z,97918.50
2023-04-07T00:14:34.639Z,97921.50
2023-04-07T00:17:02.078Z,97928.00
2023-04-07T00:19:29.246Z,97931.44
2023-04-07T00:21:56.198Z,97924.84
2023-04-07T00:24:31.504Z,97927.81
2023-04-07T00:27:01.922Z,97925.28
2023-04-07T00:29:29.311Z,97924.56
2023-04-07T00:31:56.418Z,97913.03
2023-04-07T00:34:23.646Z,97921.50
2023-04-07T00:36:54.505Z,97924.66
2023-04-07T00:39:21.571Z,97921.94
2023-04-07T00:41:49.478Z,97921.84
2023-04-07T00:44:16.571Z,97921.56
2023-04-07T00:46:43.782Z,97916.47
2023-04-07T00:49:13.300Z,97920.41
2023-04-07T00:51:40.872Z,97918.09
2023-04-07T00:54:08.442Z,97914.13
2023-04-07T00:56:36.402Z,97914.22
2023-04-07T00:59:07.113Z,97920.19
2023-04-07T01:01:40.910Z,97910.16
2023-04-07T01:04:32.311Z,97899.44
2023-04-07T01:07:14.351Z,97892.09
2023-04-07T01:09:55.780Z,97902.22
2023-04-07T01:12:34.326Z,97890.31
2023-04-07T01:15:08.288Z,97899.13
2023-04-07T01:17:42.499Z,97887.19
2023-04-07T01:20:13.014Z,97890.22
2023-04-07T01:22:47.327Z,97894.16
2023-04-07T01:25:33.396Z,97890.84
2023-04-07T01:28:03.789Z,97885.16
2023-04-07T01:30:33.235Z,97878.03
2023-04-07T01:33:00.719Z,97879.97
2023-04-07T01:35:29.286Z,97869.16
2023-04-07T01:37:56.539Z,97866.53
2023-04-07T01:40:23.780Z,97876.75
2023-04-07T01:42:51.319Z,97872.63
2023-04-07T01:45:18.906Z,97869.59
2023-04-07T01:47:46.741Z,97866.13
2023-04-07T01:50:14.153Z,97860.94
2023-04-07T01:52:42.055Z,97858.66
2023-04-07T01:55:10.244Z,97855.72
2023-04-07T01:57:44.153Z,97856.94
2023-04-07T02:00:15.611Z,97856.00
2023-04-07T02:02:46.348Z,97856.69
2023-04-07T02:05:15.282Z,97846.16
2023-04-07T02:07:50.567Z,97852.47
2023-04-07T02:10:19.516Z,97849.78
2023-04-07T02:12:47.256Z,97851.84
2023-04-07T02:15:17.509Z,97852.72
2023-04-07T02:17:48.949Z,97843.72
2023-04-07T02:20:16.709Z,97844.03
2023-04-07T02:22:44.752Z,97840.22
2023-04-07T02:25:27.986Z,97842.97
2023-04-07T02:27:56.367Z,97829.19
2023-04-07T02:30:24.141Z,97821.19
2023-04-07T02:32:52.277Z,97831.88
2023-04-07T02:35:20.800Z,97823.94
2023-04-07T02:37:47.916Z,97821.38
2023-04-07T02:40:15.543Z,97816.00
2023-04-07T02:42:42.939Z,97805.78
2023-04-07T02:45:11.020Z,97808.81
2023-04-07T02:47:38.677Z,97800.00
2023-04-07T02:50:06.582Z,97804.06
2023-04-07T02:52:35.995Z,97796.44
2023-04-07T02:55:09.777Z,97797.88
2023-04-07T02:57:36.882Z,97790.88
2023-04-07T03:00:09.939Z,97791.94
2023-04-07T03:02:56.429Z,97791.53
2023-04-07T03:05:24.103Z,97785.28
2023-04-07T03:07:51.298Z,97780.97
2023-04-07T03:10:18.796Z,97778.78
2023-04-07T03:12:46.293Z,97777.97
2023-04-07T03:15:13.904Z,97773.38
2023-04-07T03:17:46.268Z,97772.28
2023-04-07T03:20:13.834Z,97763.28
2023-04-07T03:22:41.011Z,97761.38
2023-04-07T03:25:15.302Z,97752.47
2023-04-07T03:27:42.878Z,97750.69
2023-04-07T03:30:13.714Z,97745.03
2023-04-07T03:32:41.249Z,97739.34
2023-04-07T03:35:10.005Z,97738.72
2023-04-07T03:37:37.981Z,97730.75
2023-04-07T03:40:10.114Z,97730.88
2023-04-07T03:42:37.645Z,97727.13
2023-04-07T03:45:07.782Z,97713.09
2023-04-07T03:47:38.280Z,97706.13
2023-04-07T03:50:07.317Z,97703.88
2023-04-07T03:52:42.719Z,97699.38
2023-04-07T03:55:21.073Z,97700.50
2023-04-07T03:57:48.729Z,97688.22
2023-04-07T04:00:16.316Z,97686.75
2023-04-07T04:02:43.640Z,97673.84
2023-04-07T04:05:16.067Z,97673.97
2023-04-07T04:07:43.485Z,97677.06
2023-04-07T04:10:11.501Z,97673.84
2023-04-07T04:12:43.269Z,97662.00
2023-04-07T04:15:13.350Z,97667.22
2023-04-07T04:17:41.335Z,97657.84
2023-04-07T04:20:09.904Z,97655.53
2023-04-07T04:22:47.556Z,97651.59
2023-04-07T04:25:16.437Z,97651.09
2023-04-07T04:27:48.794Z,97648.00
2023-04-07T04:30:20.509Z,97649.75
2023-04-07T04:32:51.997Z,97639.56
2023-04-07T04:35:24.677Z,97638.00
2023-04-07T04:38:18.993Z,97637.09
2023-04-07T04:41:03.232Z,97625.31
2023-04-07T04:43:31.952Z,97622.25
2023-04-07T04:46:01.226Z,97608.84
2023-04-07T04:48:33.242Z,97613.03
2023-04-07T04:51:01.165Z,97594.91
2023-04-07T04:53:28.530Z,97589.88
2023-04-07T04:55:59.696Z,97584.38
2023-04-07T04:58:40.251Z,97579.78
2023-04-07T05:01:08.696Z,97562.75
2023-04-07T05:03:43.060Z,97567.19
2023-04-07T05:06:22.611Z,97554.72
2023-04-07T05:08:52.174Z,97542.97
2023-04-07T05:11:23.739Z,97539.81
2023-04-07T05:13:53.863Z,97529.88
2023-04-07T05:16:21.524Z,97526.50
2023-04-07T05:18:49.594Z,97523.53
2023-04-07T05:21:20.095Z,97517.97
2023-04-07T05:23:48.162Z,97517.16
2023-04-07T05:26:15.573Z,97520.22
2023-04-07T05:28:43.867Z,97505.41
2023-04-07T05:31:17.058Z,97497.88
2023-04-07T05:33:47.286Z,97502.94
2023-04-07T05:36:14.840Z,97495.69
2023-04-07T05:38:42.776Z,97501.50
2023-04-07T05:41:14.353Z,97479.75
2023-04-07T05:43:41.631Z,97481.88
2023-04-07T05:46:09.602Z,97478.81
2023-04-07T05:48:46.246Z,97460.09
2023-04-07T05:51:15.563Z,97470.88
2023-04-07T05:53:43.433Z,97452.94
2023-04-07T05:56:11.081Z,97457.28
2023-04-07T05:58:47.242Z,97457.81
2023-04-07T06:01:16.189Z,97453.31
2023-04-07T06:03:44.420Z,97437.53
2023-04-07T06:06:16.608Z,97452.22
2023-04-07T06:08:46.300Z,97451.31
2023-04-07T06:11:14.131Z,97438.41
2023-04-07T06:13:41.514Z,97449.38
2023-04-07T06:16:09.379Z,97424.72
2023-04-07T06:18:38.151Z,97423.44
2023-04-07T06:21:07.262Z,97427.84
2023-04-07T06:23:34.629Z,97424.66
2023-04-07T06:26:01.825Z,97425.44
2023-04-07T06:28:30.060Z,97404.75
2023-04-07T06:30:59.820Z,97405.41
2023-04-07T06:33:28.605Z,97409.19
2023-04-07T06:35:57.270Z,97417.38
2023-04-07T06:38:24.734Z,97400.47
2023-04-07T06:40:51.998Z,97400.28
2023-04-07T06:43:19.387Z,97390.16
2023-04-07T06:45:55.303Z,97396.72
2023-04-07T06:48:23.100Z,97386.28
2023-04-07T06:50:50.521Z,97382.81
2023-04-07T06:53:17.794Z,97385.47
2023-04-07T06:55:45.097Z,97360.97
2023-04-07T06:58:12.503Z,97379.41
2023-04-07T07:00:40.169Z,97367.22
2023-04-07T07:03:08.104Z,97368.38
2023-04-07T07:05:36.028Z,97375.63
2023-04-07T07:08:03.159Z,97354.03
2023-04-07T07:10:30.340Z,97346.63
2023-04-07T07:12:57.508Z,97343.88
2023-04-07T07:15:24.836Z,97349.84
2023-04-07T07:17:52.412Z,97342.56
2023-04-07T07:20:19.931Z,97344.81
2023-04-07T07:22:48.053Z,97326.75
2023-04-07T07:25:15.582Z,97317.72
2023-04-07T07:27:42.847Z,97320.78
2023-04-07T07:30:10.459Z,97310.78
2023-04-07T07:32:37.815Z,97304.97
2023-04-07T07:35:05.467Z,97307.41
2023-04-07T07:37:33.416Z,97308.19
2023-04-07T07:40:01.717Z,97303.03
2023-04-07T07:42:30.755Z,97289.00
2023-04-07T07:44:58.367Z,97283.66
2023-04-07T07:47:26.777Z,97275.63
2023-04-07T07:49:54.308Z,97278.50
2023-04-07T07:52:22.034Z,97277.56
2023-04-07T07:54:50.286Z,97256.72
2023-04-07T07:57:17.828Z,97266.91
2023-04-07T07:59:45.863Z,97260.13
2023-04-07T08:02:13.488Z,97243.34
2023-04-07T08:04:41.752Z,97226.91
2023-04-07T08:07:09.072Z,97243.81
2023-04-07T08:09:36.499Z,97237.72
2023-04-07T08:12:03.804Z,97234.00
2023-04-07T08:14:30.845Z,97224.97
2023-04-07T08:16:57.958Z,97215.94
2023-04-07T08:19:25.471Z,97217.88
2023-04-07T08:21:52.808Z,97215.59
2023-04-07T08:24:20.018Z,97216.09
2023-04-07T08:26:47.697Z,97206.25
2023-04-07T08:29:15.206Z,97196.75
2023-04-07T08:31:42.507Z,97192.72
2023-04-07T08:34:09.669Z,97189.63
2023-04-07T08:36:37.475Z,97172.03
2023-04-07T08:39:05.470Z,97177.53
2023-04-07T08:41:39.308Z,97181.41
2023-04-07T08:44:10.240Z,97176.91
2023-04-07T08:46:40.885Z,97165.28
2023-04-07T08:49:09.923Z,97138.19
2023-04-07T08:51:37.915Z,97150.28
2023-04-07T08:54:12.295Z,97151.91
2023-04-07T08:56:41.342Z,97138.03
2023-04-07T08:59:14.587Z,97151.59
2023-04-07T09:01:42.229Z,97142.41
2023-04-07T09:04:10.033Z,97141.88
2023-04-07T09:06:37.771Z,97134.47
2023-04-07T09:09:08.148Z,97134.31
2023-04-07T09:11:36.716Z,97126.44
2023-04-07T09:14:04.124Z,97128.69
2023-04-07T09:16:31.495Z,97123.38
2023-04-07T09:18:59.079Z,97112.09
2023-04-07T09:21:27.045Z,97125.94
2023-04-07T09:23:54.332Z,97127.22
2023-04-07T09:26:24.576Z,97111.91
2023-04-07T09:28:59.563Z,97119.66
2023-04-07T09:31:49.887Z,97111.28
2023-04-07T09:34:34.337Z,97107.56
2023-04-07T09:37:01.867Z,97115.63
2023-04-07T09:39:29.630Z,97103.41
2023-04-07T09:41:57.965Z,97116.56
2023-04-07T09:44:25.372Z,97109.00
2023-04-07T09:46:53.361Z,97096.94
2023-04-07T09:49:21.161Z,97114.31
2023-04-07T09:52:07.163Z,97111.91
2023-04-07T09:54:38.742Z,97112.06
2023-04-07T09:57:10.413Z,97111.56
2023-04-07T09:59:38.802Z,97102.88
2023-04-07T10:02:06.388Z,97111.69
2023-04-07T10:04:33.724Z,97093.00
2023-04-07T10:07:01.196Z,97108.28
2023-04-07T10:09:28.807Z,97095.41
2023-04-07T10:11:57.961Z,97091.38
2023-04-07T10:14:34.697Z,97087.03
2023-04-07T10:17:03.398Z,97097.78
2023-04-07T10:19:32.627Z,97090.53
2023-04-07T10:22:00.009Z,97082.81
2023-04-07T10:24:52.255Z,97087.16
2023-04-07T10:27:21.525Z,97083.13
2023-04-07T10:29:50.218Z,97083.44
2023-04-07T10:32:17.461Z,97084.56
2023-04-07T10:34:50.426Z,97073.78
2023-04-07T10:37:20.985Z,97078.94
2023-04-07T10:39:49.556Z,97091.34
2023-04-07T10:42:41.572Z,97088.75
2023-04-07T10:45:09.435Z,97086.34
2023-04-07T10:48:09.302Z,97088.28
2023-04-07T10:50:37.447Z,97086.19
2023-04-07T10:53:12.355Z,97085.69
2023-04-07T10:55:40.701Z,97087.63
2023-04-07T10:58:14.957Z,97079.91
2023-04-07T11:00:42.612Z,97080.22
2023-04-07T11:03:13.475Z,97082.97
2023-04-07T11:05:41.517Z,97083.91
2023-04-07T11:08:09.014Z,97087.91
2023-04-07T11:10:36.544Z,97076.47
2023-04-07T11:13:07.795Z,97078.25
2023-04-07T11:15:37.876Z,97079.00
2023-04-07T11:18:16.557Z,97083.16
2023-04-07T11:20:48.768Z,97079.75
2023-04-07T11:23:16.462Z,97080.22
2023-04-07T11:25:45.126Z,97085.75
2023-04-07T11:28:13.126Z,97091.38
2023-04-07T11:30:50.050Z,97088.94
2023-04-07T11:33:22.093Z,97093.13
2023-04-07T11:35:53.276Z,97078.97
2023-04-07T11:38:21.334Z,97082.03
2023-04-07T11:40:48.814Z,97095.16
2023-04-07T11:43:19.746Z,97093.06
2023-04-07T11:45:47.999Z,97097.06
2023-04-07T11:48:29.560Z,97089.28
2023-04-07T11:50:56.700Z,97091.16
2023-04-07T11:53:28.853Z,97094.31
2023-04-07T11:56:09.965Z,97101.66
2023-04-07T11:58:37.508Z,97099.16
2023-04-07T12:01:08.246Z,97094.78
2023-04-07T12:03:36.782Z,97100.78
2023-04-07T12:06:04.550Z,97090.16
2023-04-07T12:08:42.497Z,97092.00
2023-04-07T12:11:10.136Z,97091.53
2023-04-07T12:13:37.794Z,97101.34
2023-04-07T12:16:05.604Z,97095.78
2023-04-07T12:18:33.256Z,97094.38
2023-04-07T12:21:00.369Z,97095.72
2023-04-07T12:23:27.653Z,97093.19
2023-04-07T12:25:54.661Z,97097.13
2023-04-07T12:28:22.032Z,97094.53
2023-04-07T12:30:49.090Z,97099.34
2023-04-07T12:33:16.967Z,97099.56
2023-04-07T12:35:44.889Z,97097.41
2023-04-07T12:38:12.727Z,97095.28
2023-04-07T12:40:39.728Z,97091.34
2023-04-07T12:43:07.405Z,97089.81
2023-04-07T12:45:34.766Z,97099.69
2023-04-07T12:48:02.738Z,97082.41
2023-04-07T12:50:30.307Z,97092.88
2023-04-07T12:52:59.874Z,97094.59
2023-04-07T12:55:26.923Z,97083.03
2023-04-07T12:57:55.850Z,97096.53
2023-04-07T13:00:23.013Z,97088.41
2023-04-07T13:02:50.485Z,97087.41
2023-04-07T13:05:18.861Z,97091.31
2023-04-07T13:07:47.373Z,97091.06
2023-04-07T13:10:16.376Z,97098.69
2023-04-07T13:12:43.886Z,97095.47
2023-04-07T13:15:11.645Z,97107.44
2023-04-07T13:17:39.209Z,97100.47
2023-04-07T13:20:07.437Z,97094.53
2023-04-07T13:22:36.037Z,97102.72
2023-04-07T13:25:04.258Z,97110.75
2023-04-07T13:27:31.286Z,97109.25
2023-04-07T13:29:58.637Z,97109.66
2023-04-07T13:32:26.973Z,97120.09
2023-04-07T13:34:55.696Z,97117.47
2023-04-07T13:37:23.265Z,97114.06
2023-04-07T13:39:51.412Z,97111.75
2023-04-07T13:42:20.660Z,97106.50
2023-04-07T13:44:50.335Z,97102.50
2023-04-07T13:47:21.575Z,97104.22
2023-04-07T13:49:49.210Z,97109.47
2023-04-07T13:52:17.542Z,97117.16
2023-04-07T13:54:44.957Z,97127.81
2023-04-07T13:57:14.500Z,97123.28
2023-04-07T13:59:41.861Z,97122.53
2023-04-07T14:02:09.128Z,97123.16
2023-04-07T14:04:37.001Z,97127.25
2023-04-07T14:07:04.170Z,97117.81
2023-04-07T14:09:31.696Z,97131.69
2023-04-07T14:11:59.310Z,97127.66
2023-04-07T14:14:26.814Z,97130.13
2023-04-07T14:16:54.472Z,97134.47
2023-04-07T14:19:24.830Z,97140.22
2023-04-07T14:21:52.213Z,97136.97
2023-04-07T14:24:19.708Z,97157.59
2023-04-07T14:26:46.916Z,97172.78
2023-04-07T14:29:14.689Z,97193.75
2023-04-07T14:31:42.723Z,97206.72
2023-04-07T14:34:10.021Z,97200.78
2023-04-07T14:36:37.402Z,97212.66
2023-04-07T14:39:04.862Z,97205.34
2023-04-07T14:41:32.059Z,97240.66
2023-04-07T14:43:59.797Z,97235.31
2023-04-07T14:46:27.265Z,97249.38
2023-04-07T14:48:54.761Z,97246.97
2023-04-07T14:51:22.354Z,97247.75
2023-04-07T14:53:55.374Z,97256.22
2023-04-07T14:56:22.423Z,97262.59
2023-04-07T14:58:49.813Z,97252.47
2023-04-07T15:01:17.546Z,97257.72
2023-04-07T15:03:46.522Z,97254.38
2023-04-07T15:06:14.010Z,97263.59
2023-04-07T15:08:41.705Z,97280.81
2023-04-07T15:11:09.469Z,97289.53
2023-04-07T15:13:36.870Z,97273.94
2023-04-07T15:16:09.016Z,97292.81
2023-04-07T15:18:38.109Z,97281.31
2023-04-07T15:21:05.881Z,97288.72
2023-04-07T15:23:33.849Z,97278.16
2023-04-07T15:26:01.434Z,97315.53
2023-04-07T15:28:28.909Z,97313.00
2023-04-07T15:30:56.255Z,97341.50
2023-04-07T15:33:24.416Z,97348.19
2023-04-07T15:35:51.533Z,97355.94
2023-04-07T15:38:18.956Z,97350.47
2023-04-07T15:40:46.329Z,97351.56
2023-04-07T15:43:13.783Z,97367.84
2023-04-07T15:45:44.518Z,97386.19
2023-04-07T15:48:12.297Z,97397.81
2023-04-07T15:50:39.885Z,97384.06
2023-04-07T15:53:07.026Z,97381.84
2023-04-07T15:55:34.833Z,97386.63
2023-04-07T15:58:02.871Z,97396.50
2023-04-07T16:00:34.110Z,97408.66
2023-04-07T16:03:02.835Z,97406.22
2023-04-07T16:05:30.349Z,97412.84
2023-04-07T16:07:57.918Z,97421.91
2023-04-07T16:10:25.079Z,97438.94
2023-04-07T16:12:52.912Z,97434.66
2023-04-07T16:15:28.957Z,97439.34
2023-04-07T16:18:07.985Z,97448.97
2023-04-07T16:20:35.428Z,97448.94
2023-04-07T16:23:02.870Z,97448.31
2023-04-07T16:25:30.856Z,97454.63
2023-04-07T16:27:57.877Z,97460.97
2023-04-07T16:30:25.362Z,97459.88
2023-04-07T16:32:52.952Z,97471.28
2023-04-07T16:35:20.611Z,97471.47
2023-04-07T16:37:49.616Z,97478.97
2023-04-07T16:40:16.998Z,97480.59
2023-04-07T16:42:44.095Z,97456.78
2023-04-07T16:45:11.595Z,97471.84
2023-04-07T16:47:39.592Z,97472.00
2023-04-07T16:50:07.221Z,97483.84
2023-04-07T16:52:34.827Z,97507.59
2023-04-07T16:55:02.267Z,97511.84
2023-04-07T16:57:29.878Z,97512.00
2023-04-07T16:59:57.418Z,97509.84
2023-04-07T17:02:25.246Z,97511.44
2023-04-07T17:04:52.309Z,97520.78
2023-04-07T17:07:20.029Z,97522.81
2023-04-07T17:09:47.020Z,97530.78
2023-04-07T17:12:14.701Z,97519.69
2023-04-07T17:14:42.540Z,97514.09
2023-04-07T17:17:09.764Z,97522.63
2023-04-07T17:19:37.309Z,97534.34
2023-04-07T17:22:04.854Z,97528.16
2023-04-07T17:24:32.568Z,97563.41
2023-04-07T17:26:59.518Z,97558.66
2023-04-07T17:29:28.818Z,97576.63
2023-04-07T17:31:56.305Z,97593.38
2023-04-07T17:34:24.004Z,97619.47
2023-04-07T17:36:51.839Z,97645.56
2023-04-07T17:39:19.387Z,97633.84
2023-04-07T17:41:47.821Z,97628.91
2023-04-07T17:44:15.330Z,97624.97
2023-04-07T17:46:42.829Z,97620.38
2023-04-07T17:49:09.877Z,97617.66
2023-04-07T17:51:37.463Z,97631.44
2023-04-07T17:54:04.750Z,97637.31
2023-04-07T17:56:32.545Z,97635.66
2023-04-07T17:58:59.890Z,97662.13
2023-04-07T18:01:27.551Z,97644.44
2023-04-07T18:03:54.863Z,97661.53
2023-04-07T18:06:22.646Z,97643.69
2023-04-07T18:08:52.723Z,97657.66
2023-04-07T18:11:21.630Z,97661.50
2023-04-07T18:13:49.107Z,97665.34
2023-04-07T18:16:21.857Z,97674.13
2023-04-07T18:18:49.342Z,97678.78
2023-04-07T18:21:16.698Z,97689.13
2023-04-07T18:23:44.060Z,97693.56
2023-04-07T18:26:11.377Z,97689.75
2023-04-07T18:28:38.834Z,97694.06
2023-04-07T18:31:07.353Z,97700.38
2023-04-07T18:33:35.340Z,97702.19
2023-04-07T18:36:07.043Z,97705.34
2023-04-07T18:38:36.103Z,97720.97
2023-04-07T18:41:03.990Z,97709.91
2023-04-07T18:43:31.513Z,97716.09
2023-04-07T18:45:58.773Z,97712.03
2023-04-07T18:48:27.095Z,97715.06
2023-04-07T18:50:55.193Z,97720.22
2023-04-07T18:53:22.883Z,97717.56
2023-04-07T18:55:51.026Z,97707.97
2023-04-07T18:58:19.040Z,97721.59
2023-04-07T19:00:46.985Z,97748.13
2023-04-07T19:03:14.496Z,97740.03
2023-04-07T19:05:42.361Z,97743.22
2023-04-07T19:08:09.825Z,97752.34
2023-04-07T19:10:37.246Z,97765.28
2023-04-07T19:13:04.716Z,97757.81
2023-04-07T19:15:37.989Z,97746.75
2023-04-07T19:18:05.102Z,97755.88
2023-04-07T19:20:33.468Z,97767.13
2023-04-07T19:23:02.039Z,97748.06
2023-04-07T19:25:30.791Z,97752.69
2023-04-07T19:27:58.626Z,97761.47
2023-04-07T19:30:25.919Z,97752.84
2023-04-07T19:32:53.847Z,97764.94
2023-04-07T19:35:21.317Z,97759.81
2023-04-07T19:37:48.492Z,97775.22
2023-04-07T19:40:16.091Z,97777.22
2023-04-07T19:42:43.204Z,97785.84
2023-04-07T19:45:11.119Z,97793.47
2023-04-07T19:47:38.870Z,97815.63
2023-04-07T19:50:06.675Z,97815.78
2023-04-07T19:52:34.281Z,97830.88
2023-04-07T19:55:02.696Z,97864.66
2023-04-07T19:57:31.230Z,97864.47
2023-04-07T19:59:58.883Z,97871.91
2023-04-07T20:02:26.248Z,97867.31
2023-04-07T20:04:53.642Z,97873.41
2023-04-07T20:07:22.484Z,97890.78
2023-04-07T20:09:53.681Z,97881.19
2023-04-07T20:12:21.327Z,97901.03
2023-04-07T20:14:48.315Z,97930.81
2023-04-07T20:17:16.212Z,97902.19
2023-04-07T20:19:43.509Z,97918.09
2023-04-07T20:22:11.171Z,97920.25
2023-04-07T20:24:39.181Z,97918.91
2023-04-07T20:27:06.600Z,97939.09
2023-04-07T20:29:34.265Z,97929.84
2023-04-07T20:32:01.218Z,97928.31
2023-04-07T20:34:28.835Z,97933.13
2023-04-07T20:36:56.344Z,97933.63
2023-04-07T20:39:23.690Z,97944.88
2023-04-07T20:41:50.785Z,97939.56
2023-04-07T20:44:18.475Z,97931.94
2023-04-07T20:46:48.730Z,97947.50
2023-04-07T20:49:15.979Z,97972.59
2023-04-07T20:51:43.641Z,97983.16
2023-04-07T20:54:10.794Z,97996.88
2023-04-07T20:56:38.956Z,97981.13
2023-04-07T20:59:06.143Z,97959.81
2023-04-07T21:01:33.620Z,97976.66
2023-04-07T21:04:02.372Z,97978.81
2023-04-07T21:06:31.230Z,97972.19
2023-04-07T21:08:58.708Z,97979.75
2023-04-07T21:11:26.144Z,97977.03
2023-04-07T21:13:53.359Z,97971.88
2023-04-07T21:16:20.492Z,97977.44
2023-04-07T21:18:47.969Z,97976.75
2023-04-07T21:21:15.274Z,98000.78
2023-04-07T21:23:43.125Z,97999.53
2023-04-07T21:26:10.766Z,98004.00
2023-04-07T21:28:39.834Z,98020.97
2023-04-07T21:31:07.527Z,98014.19
2023-04-07T21:33:34.864Z,98016.16
2023-04-07T21:36:03.493Z,98034.94
2023-04-07T21:38:31.230Z,98051.09
2023-04-07T21:40:58.290Z,98057.03
2023-04-07T21:43:28.603Z,98068.16
2023-04-07T21:45:55.800Z,98077.34
2023-04-07T21:48:23.464Z,98060.00
2023-04-07T21:50:53.938Z,98076.00
2023-04-07T21:53:21.307Z,98083.59
2023-04-07T21:55:48.417Z,98074.03
2023-04-07T21:58:16.252Z,98086.56
2023-04-07T22:00:43.237Z,98088.16
2023-04-07T22:03:10.554Z,98097.34
2023-04-07T22:05:38.343Z,98102.09
2023-04-07T22:08:06.624Z,98094.94
2023-04-07T22:10:34.045Z,98079.00
2023-04-07T22:13:01.366Z,98094.75
2023-04-07T22:15:28.515Z,98103.72
2023-04-07T22:17:58.928Z,98099.16
2023-04-07T22:20:26.877Z,98107.53
2023-04-07T22:22:57.012Z,98112.72
2023-04-07T22:25:24.785Z,98123.28
2023-04-07T22:27:52.722Z,98103.47
2023-04-07T22:30:20.567Z,98113.38
2023-04-07T22:32:48.243Z,98115.09
2023-04-07T22:35:15.914Z,98123.00
2023-04-07T22:37:43.148Z,98140.72
2023-04-07T22:40:10.553Z,98163.09
2023-04-07T22:42:39.202Z,98177.53
2023-04-07T22:45:07.342Z,98167.81
2023-04-07T22:47:34.588Z,98176.72
2023-04-07T22:50:01.693Z,98195.59
2023-04-07T22:52:29.471Z,98192.41
2023-04-07T22:54:57.606Z,98195.88
2023-04-07T22:57:25.815Z,98191.72
2023-04-07T22:59:53.214Z,98187.00
2023-04-07T23:02:21.038Z,98198.50
2023-04-07T23:04:49.610Z,98210.72
2023-04-07T23:07:16.872Z,98210.84
2023-04-07T23:09:44.255Z,98213.34
2023-04-07T23:12:11.608Z,98234.28
2023-04-07T23:14:38.708Z,98241.22
2023-04-07T23:17:06.146Z,98242.03
2023-04-07T23:19:33.174Z,98242.56
2023-04-07T23:22:00.449Z,98260.34
2023-04-07T23:24:27.824Z,98234.78
2023-04-07T23:26:56.272Z,98226.63
2023-04-07T23:29:23.673Z,98249.38
2023-04-07T23:31:51.037Z,98249.53
2023-04-07T23:34:18.043Z,98275.47
2023-04-07T23:36:45.455Z,98277.69
2023-04-07T23:39:12.982Z,98287.25
2023-04-07T23:41:40.670Z,98286.97
2023-04-07T23:44:08.478Z,98283.78
2023-04-07T23:46:35.873Z,98296.25
2023-04-07T23:49:08.599Z,98296.13
2023-04-07T23:51:36.524Z,98307.47
2023-04-07T23:54:03.636Z,98311.22
2023-04-07T23:56:31.966Z,98315.50
2023-04-07T23:58:59.211Z,98322.34
